Weather at Bethlehem Heliport

Public forecast

Using degrees Celsius for public forecast. Weather courtesy of forecast.io.

Closest aviation weather report (METAR) to Bethlehem Heliport

Closest report is Ben Gurion International Airport, 24.4 nm (45.3 km) NW.

2022/11/27 09:20 (retrieved 34 minutes ago)

LLBG 270920Z 12010KT CAVOK 22/06 Q1014 NOSIG

Closest aviation forecast (TAF) to Bethlehem Heliport

Closest forecast is Ben Gurion International Airport, 24.4 nm (45.3 km) NW.

2022/11/27 06:06 (retrieved 4 hours ago)

TAF TAF LLBG 270502Z 2706/2806 10005KT CAVOK BECMG 2710/2712 36007KT BECMG 2715/2717 04005KT TEMPO 2721/2806 VRB03KT TX23/2711Z TN15/2804Z